createdAt,value
2019-02-23T00:01:27.544Z,9.23
2019-02-23T00:03:57.636Z,12.30
2019-02-23T00:06:30.132Z,13.70
2019-02-23T00:09:04.745Z,13.27
2019-02-23T00:11:34.038Z,14.27
2019-02-23T00:14:04.120Z,13.43
2019-02-23T00:16:34.293Z,12.57
2019-02-23T00:19:04.383Z,12.67
2019-02-23T00:21:34.452Z,11.17
2019-02-23T00:24:04.542Z,12.53
2019-02-23T00:26:35.816Z,12.93
2019-02-23T00:29:06.273Z,12.97
2019-02-23T00:31:41.102Z,14.03
2019-02-23T00:34:10.942Z,14.27
2019-02-23T00:36:42.227Z,14.83
2019-02-23T00:39:13.254Z,16.70
2019-02-23T00:41:43.308Z,13.60
2019-02-23T00:44:16.617Z,14.00
2019-02-23T00:46:53.235Z,13.80
2019-02-23T00:49:19.892Z,13.83
2019-02-23T00:51:51.806Z,14.40
2019-02-23T00:54:27.644Z,12.40
2019-02-23T00:56:57.715Z,11.13
2019-02-23T00:59:35.465Z,8.47
2019-02-23T01:02:03.377Z,10.87
2019-02-23T01:04:33.548Z,6.77
2019-02-23T01:07:04.747Z,10.70
2019-02-23T01:09:34.761Z,8.73
2019-02-23T01:12:04.833Z,10.50
2019-02-23T01:14:34.913Z,10.43
2019-02-23T01:17:07.308Z,11.00
2019-02-23T01:19:47.333Z,11.57
2019-02-23T01:22:10.381Z,8.50
2019-02-23T01:24:40.456Z,11.07
2019-02-23T01:27:10.560Z,6.00
2019-02-23T01:29:40.573Z,10.43
2019-02-23T01:32:14.883Z,7.50
2019-02-23T01:34:44.981Z,8.20
2019-02-23T01:37:18.897Z,4.93
2019-02-23T01:39:51.093Z,7.23
2019-02-23T01:42:22.001Z,8.07
2019-02-23T01:44:55.345Z,6.53
2019-02-23T01:47:30.992Z,6.20
2019-02-23T01:50:02.079Z,5.23
2019-02-23T01:52:32.131Z,6.73
2019-02-23T01:55:03.518Z,8.00
2019-02-23T01:57:33.496Z,7.30
2019-02-23T02:00:06.883Z,5.13
2019-02-23T02:02:38.152Z,7.00
2019-02-23T02:05:13.050Z,5.77
2019-02-23T02:07:46.213Z,5.83
2019-02-23T02:10:19.390Z,5.63
2019-02-23T02:12:50.729Z,4.20
2019-02-23T02:15:20.796Z,6.20
2019-02-23T02:17:50.917Z,5.33
2019-02-23T02:20:21.052Z,2.80
2019-02-23T02:22:51.124Z,4.70
2019-02-23T02:25:21.181Z,5.50
2019-02-23T02:27:52.438Z,2.87
2019-02-23T02:30:28.506Z,5.83
2019-02-23T02:32:59.571Z,6.20
2019-02-23T02:35:35.816Z,4.87
2019-02-23T02:38:05.820Z,6.43
2019-02-23T02:40:37.267Z,5.90
2019-02-23T02:43:08.337Z,6.33
2019-02-23T02:45:38.399Z,6.07
2019-02-23T02:48:08.456Z,5.83
2019-02-23T02:50:38.557Z,5.70
2019-02-23T02:53:08.698Z,6.17
2019-02-23T02:55:39.105Z,5.77
2019-02-23T02:58:09.269Z,6.23
2019-02-23T03:00:40.734Z,6.13
2019-02-23T03:03:13.947Z,5.53
2019-02-23T03:05:44.335Z,6.13
2019-02-23T03:08:14.452Z,5.63
2019-02-23T03:10:47.171Z,5.23
2019-02-23T03:13:20.403Z,5.40
2019-02-23T03:15:50.471Z,5.93
2019-02-23T03:18:25.327Z,5.90
2019-02-23T03:20:57.377Z,5.90
2019-02-23T03:23:30.220Z,5.83
2019-02-23T03:26:04.171Z,6.67
2019-02-23T03:28:37.449Z,7.10
2019-02-23T03:31:07.300Z,6.73
2019-02-23T03:33:38.589Z,6.27
2019-02-23T03:36:08.906Z,6.07
2019-02-23T03:38:40.439Z,7.60
2019-02-23T03:41:14.047Z,6.47
2019-02-23T03:43:46.928Z,7.27
2019-02-23T03:46:16.935Z,7.37
2019-02-23T03:48:46.943Z,7.50
2019-02-23T03:51:17.032Z,7.60
2019-02-23T03:53:48.372Z,7.00
2019-02-23T03:56:21.512Z,7.53
2019-02-23T03:59:00.118Z,7.70
2019-02-23T04:01:29.447Z,7.90
2019-02-23T04:03:59.529Z,8.40
2019-02-23T04:06:29.614Z,8.47
2019-02-23T04:09:02.537Z,7.60
2019-02-23T04:11:35.582Z,7.80
2019-02-23T04:14:05.575Z,7.87
2019-02-23T04:16:37.498Z,8.23
2019-02-23T04:19:07.533Z,8.80
2019-02-23T04:21:38.656Z,7.80
2019-02-23T04:24:08.775Z,8.73
2019-02-23T04:26:40.188Z,7.07
2019-02-23T04:29:10.299Z,7.20
2019-02-23T04:31:44.620Z,6.10
2019-02-23T04:34:14.689Z,8.30
2019-02-23T04:36:45.780Z,7.63
2019-02-23T04:39:15.858Z,7.53
2019-02-23T04:41:47.516Z,8.40
2019-02-23T04:44:17.586Z,6.77
2019-02-23T04:46:48.485Z,6.67
2019-02-23T04:49:18.564Z,7.00
2019-02-23T04:51:48.598Z,7.47
2019-02-23T04:54:19.548Z,6.53
2019-02-23T04:56:51.428Z,6.87
2019-02-23T04:59:21.512Z,6.80
2019-02-23T05:01:55.454Z,7.33
2019-02-23T05:04:26.772Z,6.00
2019-02-23T05:06:59.969Z,6.90
2019-02-23T05:09:32.532Z,5.53
2019-02-23T05:12:04.041Z,5.73
2019-02-23T05:14:34.946Z,6.87
2019-02-23T05:17:08.581Z,6.20
2019-02-23T05:19:38.662Z,7.13
2019-02-23T05:22:09.752Z,6.50
2019-02-23T05:24:41.171Z,6.00
2019-02-23T05:27:12.352Z,7.50
2019-02-23T05:29:45.400Z,7.47
2019-02-23T05:32:19.862Z,4.80
2019-02-23T05:34:46.999Z,6.70
2019-02-23T05:37:18.125Z,6.60
2019-02-23T05:39:48.260Z,6.37
2019-02-23T05:42:18.269Z,7.40
2019-02-23T05:44:48.362Z,7.33
2019-02-23T05:47:18.473Z,5.40
2019-02-23T05:49:51.974Z,7.00
2019-02-23T05:52:24.799Z,6.87
2019-02-23T05:54:54.907Z,6.97
2019-02-23T05:57:24.988Z,5.93
2019-02-23T05:59:55.207Z,7.07
2019-02-23T06:02:25.298Z,6.27
2019-02-23T06:04:56.272Z,7.50
2019-02-23T06:07:29.531Z,8.17
2019-02-23T06:10:00.771Z,7.83
2019-02-23T06:12:30.847Z,8.07
2019-02-23T06:15:02.678Z,7.17
2019-02-23T06:17:36.089Z,7.27
2019-02-23T06:20:06.312Z,8.10
2019-02-23T06:22:36.473Z,7.50
2019-02-23T06:25:11.551Z,7.50
2019-02-23T06:27:41.708Z,8.00
2019-02-23T06:30:13.425Z,7.20
2019-02-23T06:32:44.641Z,8.50
2019-02-23T06:35:17.846Z,7.60
2019-02-23T06:37:49.077Z,8.10
2019-02-23T06:40:19.132Z,8.33
2019-02-23T06:42:49.158Z,7.23
2019-02-23T06:45:19.238Z,7.87
2019-02-23T06:47:50.413Z,7.43
2019-02-23T06:50:23.091Z,7.23
2019-02-23T06:52:54.205Z,6.70
2019-02-23T06:55:25.473Z,6.07
2019-02-23T06:57:59.025Z,7.20
2019-02-23T07:00:29.280Z,5.90
2019-02-23T07:02:59.367Z,6.23
2019-02-23T07:05:31.118Z,7.17
2019-02-23T07:08:01.180Z,8.20
2019-02-23T07:10:31.284Z,6.20
2019-02-23T07:13:02.626Z,6.70
2019-02-23T07:15:32.752Z,7.57
2019-02-23T07:18:03.933Z,6.43
2019-02-23T07:20:43.879Z,7.07
2019-02-23T07:23:07.686Z,5.77
2019-02-23T07:25:38.805Z,7.20
2019-02-23T07:28:10.981Z,8.23
2019-02-23T07:30:42.437Z,8.27
2019-02-23T07:33:12.997Z,8.27
2019-02-23T07:35:44.825Z,9.03
2019-02-23T07:38:14.958Z,8.27
2019-02-23T07:40:45.127Z,8.30
2019-02-23T07:43:24.228Z,9.50
2019-02-23T07:45:55.127Z,9.40
2019-02-23T07:48:25.171Z,9.37
2019-02-23T07:50:55.332Z,7.60
2019-02-23T07:53:28.286Z,9.48
2019-02-23T07:55:58.394Z,9.37
2019-02-23T07:58:28.576Z,9.00
2019-02-23T08:00:58.772Z,9.70
2019-02-23T08:03:31.789Z,8.30
2019-02-23T08:06:01.825Z,10.00
2019-02-23T08:08:31.982Z,8.17
2019-02-23T08:11:02.089Z,10.10
2019-02-23T08:13:32.201Z,9.97
2019-02-23T08:16:02.327Z,9.17
2019-02-23T08:18:33.995Z,9.17
2019-02-23T08:21:05.233Z,8.47
2019-02-23T08:23:35.328Z,9.30
2019-02-23T08:26:06.555Z,8.70
2019-02-23T08:28:39.509Z,10.30
2019-02-23T08:31:13.217Z,8.80
2019-02-23T08:33:43.731Z,11.07
2019-02-23T08:36:17.283Z,9.90
2019-02-23T08:38:48.191Z,9.80
2019-02-23T08:41:20.410Z,6.10
2019-02-23T08:43:53.899Z,8.20
2019-02-23T08:46:28.902Z,8.80
2019-02-23T08:49:00.121Z,8.70
2019-02-23T08:51:30.987Z,8.00
2019-02-23T08:54:01.080Z,8.53
2019-02-23T08:56:31.251Z,6.80
2019-02-23T08:59:01.703Z,9.53
2019-02-23T09:01:34.778Z,9.07
2019-02-23T09:04:07.273Z,9.40
2019-02-23T09:06:39.364Z,7.90
2019-02-23T09:09:12.357Z,6.73
2019-02-23T09:11:42.233Z,7.90
2019-02-23T09:14:14.128Z,10.10
2019-02-23T09:16:44.158Z,9.97
2019-02-23T09:19:24.077Z,9.03
2019-02-23T09:21:54.199Z,8.53
2019-02-23T09:24:24.285Z,9.07
2019-02-23T09:26:58.325Z,7.70
2019-02-23T09:29:29.385Z,8.90
2019-02-23T09:31:59.462Z,8.50
2019-02-23T09:34:29.586Z,6.70
2019-02-23T09:37:05.600Z,8.60
2019-02-23T09:39:40.913Z,6.60
2019-02-23T09:42:14.652Z,6.80
2019-02-23T09:44:44.481Z,4.03
2019-02-23T09:47:15.785Z,7.83
2019-02-23T09:49:45.928Z,7.13
2019-02-23T09:52:16.048Z,8.53
2019-02-23T09:54:49.465Z,7.10
2019-02-23T09:57:19.524Z,8.80
2019-02-23T09:59:51.128Z,7.20
2019-02-23T10:02:21.205Z,8.63
2019-02-23T10:04:54.272Z,7.63
2019-02-23T10:07:24.358Z,7.97
2019-02-23T10:09:54.428Z,9.20
2019-02-23T10:12:24.484Z,8.83
2019-02-23T10:14:54.579Z,6.17
2019-02-23T10:17:24.606Z,7.40
2019-02-23T10:19:55.889Z,9.63
2019-02-23T10:22:27.208Z,10.67
2019-02-23T10:24:57.213Z,9.10
2019-02-23T10:27:27.312Z,9.60
2019-02-23T10:29:57.346Z,9.07
2019-02-23T10:32:27.367Z,8.73
2019-02-23T10:34:57.436Z,9.00
2019-02-23T10:37:27.448Z,9.23
2019-02-23T10:39:57.522Z,8.30
2019-02-23T10:42:27.556Z,9.83
2019-02-23T10:44:57.564Z,9.00
2019-02-23T10:47:27.569Z,8.90
2019-02-23T10:49:57.592Z,8.50
2019-02-23T10:52:27.677Z,9.80
2019-02-23T10:54:57.888Z,11.10
2019-02-23T10:57:29.630Z,10.30
2019-02-23T11:00:04.059Z,10.10
2019-02-23T11:02:34.135Z,10.50
2019-02-23T11:05:07.356Z,10.13
2019-02-23T11:07:37.345Z,9.60
2019-02-23T11:10:07.574Z,9.60
2019-02-23T11:12:44.227Z,10.43
2019-02-23T11:15:17.494Z,9.97
2019-02-23T11:17:47.721Z,9.13
2019-02-23T11:20:18.682Z,8.33
2019-02-23T11:22:48.759Z,9.93
2019-02-23T11:25:18.761Z,8.33
2019-02-23T11:27:48.879Z,9.03
2019-02-23T11:30:19.112Z,7.47
2019-02-23T11:32:49.174Z,8.13
2019-02-23T11:35:19.291Z,7.03
2019-02-23T11:37:49.301Z,8.07
2019-02-23T11:40:19.361Z,7.53
2019-02-23T11:42:49.605Z,7.87
2019-02-23T11:45:19.682Z,5.87
2019-02-23T11:47:49.697Z,5.30
2019-02-23T11:50:19.691Z,6.80
2019-02-23T11:52:49.713Z,6.30
2019-02-23T11:55:21.694Z,6.70
2019-02-23T11:57:51.720Z,5.87
2019-02-23T12:00:21.722Z,5.77
2019-02-23T12:02:53.530Z,4.97
2019-02-23T12:05:23.784Z,6.10
2019-02-23T12:07:53.918Z,5.80
2019-02-23T12:10:23.909Z,6.23
2019-02-23T12:12:54.000Z,4.80
2019-02-23T12:15:24.090Z,5.50
2019-02-23T12:17:54.249Z,5.03
2019-02-23T12:20:24.366Z,5.73
2019-02-23T12:22:54.363Z,4.60
2019-02-23T12:25:24.384Z,4.20
2019-02-23T12:27:54.468Z,4.23
2019-02-23T12:30:26.230Z,4.53
2019-02-23T12:32:56.406Z,4.10
2019-02-23T12:35:26.466Z,3.60
2019-02-23T12:37:56.543Z,3.17
2019-02-23T12:40:26.543Z,3.60
2019-02-23T12:42:56.666Z,3.40
2019-02-23T12:45:28.384Z,2.03
2019-02-23T12:48:00.004Z,3.10
2019-02-23T12:50:30.066Z,4.00
2019-02-23T12:53:03.885Z,3.77
2019-02-23T12:55:34.685Z,3.50
2019-02-23T12:58:05.975Z,3.10
2019-02-23T13:00:40.071Z,4.23
2019-02-23T13:03:12.873Z,3.90
2019-02-23T13:05:44.125Z,3.70
2019-02-23T13:08:14.301Z,4.07
2019-02-23T13:10:46.478Z,4.13
2019-02-23T13:13:47.497Z,3.30
2019-02-23T13:16:30.528Z,3.63
2019-02-23T13:19:40.301Z,3.17
2019-02-23T13:22:21.325Z,3.60
2019-02-23T13:25:30.829Z,4.10
2019-02-23T13:28:46.191Z,3.63
2019-02-23T13:31:42.273Z,4.30
2019-02-23T13:35:03.714Z,4.13
2019-02-23T13:38:18.033Z,3.90
2019-02-23T13:41:22.449Z,4.23
2019-02-23T13:44:40.824Z,3.00
2019-02-23T13:47:43.820Z,3.73
2019-02-23T13:50:35.661Z,3.40
2019-02-23T13:53:47.380Z,3.10
2019-02-23T13:56:41.854Z,3.37
2019-02-23T13:59:37.728Z,3.50
2019-02-23T14:02:25.146Z,3.10
2019-02-23T14:05:29.920Z,4.03
2019-02-23T14:08:30.723Z,2.67
2019-02-23T14:11:33.489Z,3.10
2019-02-23T14:14:27.649Z,2.83
2019-02-23T14:17:27.654Z,3.13
2019-02-23T14:20:37.398Z,3.00
2019-02-23T14:23:38.442Z,3.17
2019-02-23T14:26:57.574Z,2.37
2019-02-23T14:30:11.625Z,2.53
2019-02-23T14:33:23.977Z,2.90
2019-02-23T14:36:19.384Z,2.33
2019-02-23T14:39:24.500Z,2.30
2019-02-23T14:42:23.074Z,2.90
2019-02-23T14:45:36.963Z,2.50
2019-02-23T14:48:44.116Z,3.10
2019-02-23T14:51:40.070Z,3.03
2019-02-23T14:54:25.480Z,3.20
2019-02-23T14:57:52.100Z,3.10
2019-02-23T15:00:44.033Z,3.23
2019-02-23T15:03:56.468Z,2.80
2019-02-23T15:07:06.485Z,2.70
2019-02-23T15:10:05.406Z,3.27
2019-02-23T15:12:59.443Z,2.60
2019-02-23T15:15:51.149Z,2.70
2019-02-23T15:19:10.248Z,2.77
2019-02-23T15:22:39.705Z,2.60
2019-02-23T15:25:49.242Z,2.10
2019-02-23T15:28:40.377Z,1.67
2019-02-23T15:31:25.860Z,2.60
2019-02-23T15:34:23.508Z,2.63
2019-02-23T15:37:22.163Z,3.00
2019-02-23T15:40:04.585Z,2.20
2019-02-23T15:43:04.976Z,1.90
2019-02-23T15:46:13.379Z,2.20
2019-02-23T15:49:26.756Z,1.90
2019-02-23T15:51:57.147Z,2.20
2019-02-23T15:54:29.255Z,2.13
2019-02-23T15:56:59.440Z,2.93
2019-02-23T15:59:30.720Z,2.63
2019-02-23T16:02:00.938Z,2.40
2019-02-23T16:04:31.222Z,2.40
2019-02-23T16:07:01.346Z,2.20
2019-02-23T16:09:34.552Z,1.83
2019-02-23T16:12:06.030Z,2.17
2019-02-23T16:14:37.363Z,1.97
2019-02-23T16:17:09.918Z,2.20
2019-02-23T16:19:41.756Z,2.60
2019-02-23T16:22:11.450Z,2.17
2019-02-23T16:24:41.650Z,2.10
2019-02-23T16:27:11.961Z,2.03
2019-02-23T16:29:44.251Z,2.20
2019-02-23T16:32:14.397Z,2.50
2019-02-23T16:34:44.600Z,2.60
2019-02-23T16:37:14.735Z,2.27
2019-02-23T16:39:46.021Z,2.27
2019-02-23T16:42:16.314Z,2.50
2019-02-23T16:44:46.516Z,2.27
2019-02-23T16:47:16.742Z,2.50
2019-02-23T16:49:49.178Z,2.80
2019-02-23T16:52:19.411Z,1.83
2019-02-23T16:54:49.647Z,1.73
2019-02-23T16:57:19.892Z,2.50
2019-02-23T16:59:50.084Z,2.50
2019-02-23T17:02:20.216Z,2.60
2019-02-23T17:04:53.609Z,2.10
2019-02-23T17:07:22.307Z,1.80
2019-02-23T17:09:52.744Z,1.50
2019-02-23T17:12:22.878Z,1.80
2019-02-23T17:14:53.019Z,1.93
2019-02-23T17:17:23.194Z,1.50
2019-02-23T17:19:53.434Z,1.53
2019-02-23T17:22:23.612Z,1.20
2019-02-23T17:24:53.736Z,1.70
2019-02-23T17:27:35.500Z,1.57
2019-02-23T17:29:55.679Z,1.70
2019-02-23T17:32:25.997Z,2.20
2019-02-23T17:34:57.135Z,1.73
2019-02-23T17:37:29.790Z,1.70
2019-02-23T17:39:59.080Z,2.03
2019-02-23T17:42:29.201Z,2.30
2019-02-23T17:44:59.327Z,1.67
2019-02-23T17:47:29.478Z,1.60
2019-02-23T17:49:59.699Z,1.93
2019-02-23T17:52:29.823Z,2.50
2019-02-23T17:55:00.137Z,1.63
2019-02-23T17:57:30.301Z,1.60
2019-02-23T18:00:03.405Z,2.13
2019-02-23T18:02:33.533Z,2.00
2019-02-23T18:05:03.713Z,1.83
2019-02-23T18:07:33.934Z,2.13
2019-02-23T18:10:04.019Z,2.53
2019-02-23T18:12:34.216Z,1.60
2019-02-23T18:15:04.832Z,2.07
2019-02-23T18:17:34.978Z,2.10
2019-02-23T18:20:05.829Z,1.70
2019-02-23T18:22:35.965Z,2.13
2019-02-23T18:25:06.209Z,1.80
2019-02-23T18:27:36.438Z,1.50
2019-02-23T18:30:12.345Z,2.10
2019-02-23T18:32:39.529Z,2.27
2019-02-23T18:35:10.230Z,2.50
2019-02-23T18:37:40.465Z,1.67
2019-02-23T18:40:10.789Z,2.10
2019-02-23T18:42:40.995Z,1.83
2019-02-23T18:45:11.208Z,2.17
2019-02-23T18:47:41.432Z,2.43
2019-02-23T18:50:13.549Z,2.10
2019-02-23T18:52:43.771Z,2.50
2019-02-23T18:55:13.978Z,2.10
2019-02-23T18:57:44.320Z,2.73
2019-02-23T19:00:14.694Z,2.40
2019-02-23T19:02:47.094Z,2.80
2019-02-23T19:05:17.298Z,2.90
2019-02-23T19:07:48.104Z,3.50
2019-02-23T19:10:18.396Z,3.97
2019-02-23T19:12:48.664Z,3.80
2019-02-23T19:15:20.665Z,2.97
2019-02-23T19:17:50.864Z,2.50
2019-02-23T19:20:21.143Z,2.67
2019-02-23T19:22:51.463Z,2.27
2019-02-23T19:25:21.658Z,11.53
2019-02-23T19:27:51.854Z,14.23
2019-02-23T19:30:22.205Z,9.60
2019-02-23T19:32:52.506Z,7.90
2019-02-23T19:35:22.946Z,9.53
2019-02-23T19:37:53.266Z,4.63
2019-02-23T19:40:26.226Z,2.20
2019-02-23T19:42:58.585Z,2.90
2019-02-23T19:45:28.863Z,2.10
2019-02-23T19:48:00.698Z,1.80
2019-02-23T19:50:34.526Z,1.97
2019-02-23T19:53:06.451Z,2.00
2019-02-23T19:55:36.978Z,2.50
2019-02-23T19:58:07.591Z,1.67
2019-02-23T20:00:37.872Z,2.47
2019-02-23T20:03:08.544Z,2.50
2019-02-23T20:05:38.721Z,2.07
2019-02-23T20:08:09.007Z,2.60
2019-02-23T20:10:39.508Z,2.50
2019-02-23T20:13:09.815Z,2.13
2019-02-23T20:15:40.391Z,2.37
2019-02-23T20:18:10.663Z,3.03
2019-02-23T20:20:40.922Z,2.47
2019-02-23T20:23:11.218Z,3.60
2019-02-23T20:25:41.467Z,2.57
2019-02-23T20:28:11.783Z,3.50
2019-02-23T20:30:45.147Z,2.50
2019-02-23T20:33:15.510Z,3.70
2019-02-23T20:35:49.273Z,4.27
2019-02-23T20:38:20.885Z,3.23
2019-02-23T20:40:51.168Z,3.10
2019-02-23T20:43:21.471Z,3.63
2019-02-23T20:45:56.529Z,3.10
2019-02-23T20:48:28.965Z,2.87
2019-02-23T20:51:01.057Z,3.37
2019-02-23T20:53:31.367Z,28.40
2019-02-23T20:56:03.724Z,18.80
2019-02-23T20:58:37.593Z,10.77
2019-02-23T21:01:08.695Z,15.63
2019-02-23T21:03:38.954Z,13.80
2019-02-23T21:06:12.944Z,7.37
2019-02-23T21:08:43.198Z,4.33
2019-02-23T21:11:13.462Z,5.17
2019-02-23T21:13:51.728Z,3.60
2019-02-23T21:16:25.049Z,3.23
2019-02-23T21:18:56.518Z,3.83
2019-02-23T21:21:32.060Z,4.03
2019-02-23T21:24:04.239Z,3.70
2019-02-23T21:26:39.938Z,7.93
2019-02-23T21:29:16.190Z,12.10
2019-02-23T21:31:47.989Z,15.00
2019-02-23T21:34:19.772Z,7.10
2019-02-23T21:36:52.317Z,7.90
2019-02-23T21:39:22.462Z,29.77
2019-02-23T21:41:53.579Z,27.67
2019-02-23T21:44:23.727Z,8.60
2019-02-23T21:46:53.890Z,5.07
2019-02-23T21:49:28.747Z,4.30
2019-02-23T21:52:02.702Z,4.27
2019-02-23T21:54:35.686Z,8.10
2019-02-23T21:57:09.028Z,3.40
2019-02-23T21:59:41.999Z,3.13
2019-02-23T22:02:14.524Z,4.00
2019-02-23T22:04:45.981Z,4.47
2019-02-23T22:07:18.944Z,4.10
2019-02-23T22:09:52.059Z,3.97
2019-02-23T22:12:28.179Z,3.30
2019-02-23T22:15:00.360Z,4.00
2019-02-23T22:17:30.244Z,3.43
2019-02-23T22:20:04.003Z,2.90
2019-02-23T22:22:35.933Z,2.80
2019-02-23T22:25:06.250Z,3.37
2019-02-23T22:27:36.503Z,3.50
2019-02-23T22:30:09.620Z,3.30
2019-02-23T22:32:41.089Z,3.70
2019-02-23T22:35:13.959Z,4.30
2019-02-23T22:37:44.163Z,2.50
2019-02-23T22:40:16.312Z,2.63
2019-02-23T22:42:49.079Z,3.00
2019-02-23T22:45:20.787Z,3.37
2019-02-23T22:47:54.172Z,2.40
2019-02-23T22:50:28.513Z,2.50
2019-02-23T22:53:00.554Z,2.87
2019-02-23T22:55:30.652Z,2.63
2019-02-23T22:58:05.665Z,2.67
2019-02-23T23:00:51.805Z,2.23
2019-02-23T23:03:22.170Z,3.17
2019-02-23T23:05:52.320Z,3.67
2019-02-23T23:08:23.576Z,2.70
2019-02-23T23:10:53.692Z,2.43
2019-02-23T23:13:27.218Z,3.27
2019-02-23T23:15:56.637Z,2.90
2019-02-23T23:18:26.794Z,2.60
2019-02-23T23:20:56.872Z,2.67
2019-02-23T23:23:27.756Z,3.60
2019-02-23T23:25:58.865Z,2.63
2019-02-23T23:28:28.940Z,3.80
2019-02-23T23:30:58.956Z,3.13
2019-02-23T23:33:30.755Z,3.27
2019-02-23T23:36:01.252Z,3.50
2019-02-23T23:38:32.499Z,3.40
2019-02-23T23:41:04.275Z,3.40
2019-02-23T23:43:35.640Z,3.23
2019-02-23T23:46:07.671Z,3.23
2019-02-23T23:48:37.489Z,3.67
2019-02-23T23:51:09.319Z,3.23
2019-02-23T23:53:39.429Z,5.03
2019-02-23T23:56:11.257Z,3.73
2019-02-23T23:58:41.260Z,3.57
